• Join FlightAware (Why Join?)
  • Login
  • US Flag 
02:21PM EDT


 

Airport Tracker/Info


-or-


 

Live Flight TrackerFlight Track Log ✈ N30VP ✈ 21-Oct-2013 ✈ KOKV - KAPF

Flight Track Log - Related Links

Times and Time Zones

All times are in EDT time to prevent confusion due to time zone crossing. See the N30VP flight status page for this flight to view local times or setup timezone preferences in your user account.

Time Position Orientation Groundspeed Altitude Reporting Facility
EDT Latitude Longitude Course Direction KTS MPH feet Rate Location/Type
09:20AM 39.1000 -78.1833 226° Southwest 238 274 4,000  Level Potomac TRACON
09:21AM 39.0333 -78.1667 169° South 257 296 6,300 1,440 Climbing Potomac TRACON
09:22AM 38.9550 -78.1489 170° South 266 306 7,000 360 Climbing Washington Center
09:24AM 38.8167 -78.0667 155° Southeast 269 310 7,400 300 Climbing Potomac TRACON
09:25AM 38.5652 -78.3324 226° Southwest  Level Estimated
09:25AM 38.7667 -78.0000 134° Southeast 273 314 8,000  Level Potomac TRACON
09:26AM 38.7167 -77.9333 134° Southeast 286 329 9,600 960 Climbing Potomac TRACON
09:27AM 38.6500 -77.8500 136° Southeast 323 372 10,000 900 Climbing Potomac TRACON
09:28AM 38.5667 -77.8167 163° South 352 405 11,400 1,620 Climbing Potomac TRACON
09:28AM 38.5253 -77.8447 208° Southwest 333 383 12,400 2,040 Climbing Washington Center
09:29AM 38.4431 -77.8953 206° Southwest 325 374 14,500 1,920 Climbing Washington Center
09:30AM 38.3608 -77.9456 206° Southwest 330 380 16,300 1,680 Climbing Washington Center
09:31AM 38.2803 -78.0092 212° Southwest 330 380 17,900 1,800 Climbing Washington Center
09:32AM 38.2100 -78.0864 221° Southwest 336 387 20,000 2,520 Climbing Washington Center
09:33AM 38.1458 -78.1633 223° Southwest 336 387 23,100 2,880 Climbing Washington Center
09:34AM 38.0814 -78.2403 223° Southwest 322 371 25,700 1,980 Climbing Washington Center
09:35AM 38.0194 -78.3094 221° Southwest 316 364 27,000 1,500 Climbing Washington Center
09:36AM 37.9469 -78.3778 217° Southwest 316 364 28,700 1,680 Climbing Washington Center
09:37AM 37.8769 -78.4331 212° Southwest 329 379 30,400 1,620 Climbing Washington Center
09:38AM 37.8044 -78.4961 215° Southwest 334 384 32,000 780 Climbing Washington Center
09:39AM 37.7278 -78.5614 214° Southwest 334 384 32,000  Level Washington Center
09:40AM 37.6444 -78.6342 215° Southwest 353 406 32,100 720 Climbing Washington Center
09:41AM 37.5528 -78.7117 214° Southwest 364 419 33,500 1,500 Climbing Washington Center
09:42AM 37.4783 -78.7742 214° Southwest 354 407 35,200 1,260 Climbing Washington Center
09:43AM 37.4056 -78.8389 215° Southwest 341 392 36,000 360 Climbing Washington Center
09:44AM 37.3286 -78.9036 214° Southwest 334 384 36,000  Level Washington Center
09:45AM 37.2475 -78.9706 213° Southwest 340 391 36,000  Level Washington Center
09:46AM 37.1750 -79.0325 214° Southwest 340 391 36,000  Level Washington Center
09:47AM 37.0958 -79.0994 214° Southwest 340 391 36,000  Level Washington Center
09:48AM 37.0167 -79.1661 214° Southwest 345 397 36,000  Level Washington Center
09:49AM 36.9372 -79.2350 215° Southwest 345 397 36,000  Level Washington Center
09:50AM 36.8558 -79.3039 214° Southwest 345 397 36,000  Level Washington Center
09:51AM 36.7681 -79.3750 213° Southwest 353 406 36,000  Level Washington Center
09:52AM 36.6867 -79.4408 213° Southwest 353 406 36,000  Level Washington Center
09:54AM 36.5136 -79.5856 214° Southwest 352 405 36,000  Level Atlanta Center
09:55AM 36.4367 -79.6517 215° Southwest 352 405 36,000  Level Atlanta Center
09:56AM 36.3536 -79.7183 213° Southwest 352 405 36,000  Level Atlanta Center
09:57AM 36.2744 -79.7842 214° Southwest 352 405 36,000  Level Atlanta Center
09:58AM 36.2056 -79.8419 214° Southwest 352 405 36,000  Level Atlanta Center
09:59AM 36.1222 -79.9106 214° Southwest 347 399 36,000  Level Atlanta Center
10:00AM 36.0431 -79.9711 212° Southwest 347 399 36,000  Level Atlanta Center
10:01AM 35.9508 -80.0219 204° Southwest 347 399 36,000  Level Atlanta Center
10:02AM 35.8522 -80.0703 202° Southwest 358 412 36,000  Level Atlanta Center
10:03AM 35.7578 -80.1158 201° Southwest 358 412 36,000  Level Atlanta Center
10:04AM 35.6675 -80.1661 204° Southwest 358 412 36,000  Level Atlanta Center
10:05AM 35.5750 -80.2114 202° Southwest 358 412 36,000  Level Atlanta Center
10:06AM 35.4931 -80.2533 203° Southwest 358 412 36,000  Level Atlanta Center
10:07AM 35.4006 -80.3011 203° Southwest 363 418 36,000  Level Atlanta Center
10:08AM 35.3081 -80.3486 203° Southwest 368 423 36,000  Level Atlanta Center
10:11AM 35.0936 -80.4547 202° Southwest 363 418 36,000  Level Jacksonville Center
10:12AM 35.0028 -80.5003 202° Southwest 363 418 36,000  Level Jacksonville Center
10:13AM 34.9056 -80.5461 201° Southwest 369 425 36,000  Level Jacksonville Center
10:14AM 34.8003 -80.5969 202° Southwest 369 425 36,000  Level Jacksonville Center
10:15AM 34.7197 -80.6394 203° Southwest 369 425 36,000  Level Jacksonville Center
10:16AM 34.6244 -80.6850 201° Southwest 369 425 36,000  Level Jacksonville Center
10:17AM 34.5294 -80.7303 201° Southwest 369 425 36,000  Level Jacksonville Center
10:18AM 34.4383 -80.7753 202° Southwest 369 425 36,000  Level Jacksonville Center
10:19AM 34.3411 -80.8253 203° Southwest 369 425 36,000  Level Jacksonville Center
10:20AM 34.2481 -80.8703 202° Southwest 375 432 36,000  Level Jacksonville Center
10:21AM 34.1506 -80.9178 202° Southwest 375 432 36,000  Level Jacksonville Center
10:22AM 34.0553 -80.9625 201° Southwest 375 432 36,000  Level Jacksonville Center
10:23AM 33.9581 -81.0122 203° Southwest 375 432 36,000  Level Jacksonville Center
10:24AM 33.8522 -81.0544 198° South 375 432 36,000  Level Jacksonville Center
10:25AM 33.7569 -81.1039 203° Southwest 375 432 36,000  Level Jacksonville Center
10:26AM 33.6719 -81.1481 203° Southwest 375 432 36,000  Level Jacksonville Center
10:27AM 33.5747 -81.1975 203° Southwest 375 432 36,000  Level Jacksonville Center
10:28AM 33.4772 -81.2442 202° Southwest 375 432 36,000  Level Jacksonville Center
10:29AM 33.3817 -81.2906 202° Southwest 375 432 36,000  Level Jacksonville Center
10:30AM 33.2842 -81.3394 203° Southwest 375 432 36,000  Level Jacksonville Center
10:31AM 33.1867 -81.3883 203° Southwest 375 432 36,000  Level Jacksonville Center
10:32AM 33.0892 -81.4347 202° Southwest 375 432 36,000  Level Jacksonville Center
10:33AM 32.9875 -81.4833 202° Southwest 380 437 36,000  Level Jacksonville Center
10:34AM 32.8900 -81.5294 202° Southwest 380 437 36,000  Level Jacksonville Center
10:35AM 32.7903 -81.5803 203° Southwest 385 443 36,000  Level Jacksonville Center
10:36AM 32.6822 -81.6339 203° Southwest 385 443 36,000  Level Jacksonville Center
10:37AM 32.5825 -81.6819 202° Southwest 390 449 36,000  Level Jacksonville Center
10:38AM 32.4911 -81.7250 202° Southwest 390 449 36,000  Level Jacksonville Center
10:39AM 32.3808 -81.7781 202° Southwest 390 449 36,000  Level Jacksonville Center
10:40AM 32.2894 -81.8186 201° Southwest 390 449 36,000  Level Jacksonville Center
10:41AM 32.1683 -81.8397 188° South 401 461 36,000  Level Jacksonville Center
10:42AM 32.0536 -81.8558 187° South 412 474 36,000  Level Jacksonville Center
10:43AM 31.9536 -81.8714 188° South 412 474 36,000  Level Jacksonville Center
10:44AM 31.8286 -81.8925 188° South 407 468 36,000  Level Jacksonville Center
10:45AM 31.7264 -81.9058 186° South 407 468 36,000  Level Jacksonville Center
10:46AM 31.6011 -81.9242 187° South 407 468 36,000  Level Jacksonville Center
10:47AM 31.4928 -81.9375 186° South 407 468 36,000  Level Jacksonville Center
10:48AM 31.3906 -81.9556 189° South 412 474 36,000  Level Jacksonville Center
10:49AM 31.2758 -81.9786 190° South 407 468 36,000  Level Jacksonville Center
10:50AM 31.1653 -81.9919 186° South 407 468 36,000  Level Jacksonville Center
10:51AM 31.0506 -82.0100 188° South 407 468 36,000  Level Jacksonville Center
10:52AM 30.9358 -82.0278 188° South 412 474 36,000  Level Jacksonville Center
10:53AM 30.8192 -82.0411 186° South 417 480 36,000  Level Jacksonville Center
10:54AM 30.7044 -82.0592 188° South 417 480 36,000  Level Jacksonville Center
10:55AM 30.5917 -82.0769 188° South 422 486 36,000  Level Jacksonville Center
10:56AM 30.4747 -82.0850 183° South 422 486 36,000  Level Jacksonville Center
10:57AM 30.3600 -82.1053 189° South 427 491 36,000  Level Jacksonville Center
10:58AM 30.2433 -82.1231 187° South 427 491 36,000 -300 Level Jacksonville Center
10:59AM 30.1200 -82.1194 179° South 427 491 35,500 -540 Descending Jacksonville Center
11:00AM 29.9864 -82.0939 171° South 442 509 35,000 -300 Descending Jacksonville Center
11:01AM 29.8650 -82.0711 171° South 442 509 35,000  Level Jacksonville Center
11:02AM 29.7689 -82.0503 169° South 442 509 35,000  Level Jacksonville Center
11:03AM 29.6206 -82.0231 171° South 447 514 35,000  Level Jacksonville Center
11:04AM 29.5014 -82.0003 171° South 447 514 35,000  Level Jacksonville Center
11:05AM 29.3800 -81.9750 170° South 447 514 35,000  Level Jacksonville Center
11:06AM 29.2589 -81.9525 171° South 447 514 35,000  Level Jacksonville Center
11:07AM 29.0544 -81.9081 169° South 443 510 35,000 -240 Level Miami Center
11:08AM 28.9325 -81.8811 169° South 448 516 34,400 -1,440 Descending Miami Center
11:09AM 28.8289 -81.8622 171° South 441 507 32,200 -2,160 Descending Miami Center
11:10AM 28.7128 -81.8428 172° South 431 496 30,100 -2,100 Descending Miami Center
11:11AM 28.6050 -81.8192 169° South 415 478 28,000 -1,560 Descending Miami Center
11:12AM 28.4953 -81.7931 168° South 405 466 27,000 -900 Descending Miami Center
11:13AM 28.3881 -81.7622 166° South 405 466 26,200 -1,200 Descending Miami Center
11:14AM 28.2783 -81.7339 167° South 412 474 24,700 -1,260 Descending Miami Center
11:15AM 28.1711 -81.7011 165° South 407 468 23,700 -1,620 Descending Miami Center
11:16AM 28.0611 -81.6775 169° South 407 468 21,500 -2,160 Descending Miami Center
11:17AM 27.9564 -81.6942 188° South 387 445 19,400 -2,100 Descending Miami Center
11:18AM 27.8428 -81.7175 190° South 387 445 17,300 -1,200 Descending Miami Center
11:19AM 27.7353 -81.6917 168° South 387 445 17,000 -180 Descending Miami Center
11:20AM 27.6297 -81.6617 166° South 387 445 17,000  Level Miami Center
11:21AM 27.5244 -81.6292 165° South 387 445 17,000  Level Miami Center
11:22AM 27.4189 -81.6014 167° South 392 451 17,000 -180 Level Miami Center
11:23AM 27.3114 -81.5689 165° South 392 451 16,700 -960 Descending Miami Center
11:24AM 27.2100 -81.5414 166° South 392 451 15,100 -1,620 Descending Miami Center
11:25AM 27.1169 -81.5142 165° South 375 432 13,500 -1,680 Descending Miami Center
11:26AM 27.0239 -81.4894 167° South 357 411 11,800 -1,740 Descending Miami Center
11:27AM 26.9436 -81.4492 156° South 328 377 10,100 -1,620 Descending Miami Center
11:28AM 26.8697 -81.4136 157° South 303 349 8,600 -1,080 Descending Miami Center
11:29AM 26.8014 -81.3925 165° South 274 315 8,000 -300 Descending Miami Center
11:30AM 26.7242 -81.3964 183° South 266 306 8,000  Level Miami Center
11:31AM 26.6508 -81.3981 181° South 271 312 8,000 -180 Level Miami Center
11:32AM 26.5819 -81.4025 183° South 271 312 7,700 -840 Descending Miami Center
11:33AM 26.5150 -81.4092 185° South 260 299 6,400 -1,320 Descending Miami Center
11:35AM 26.3894 -81.4386 204° Southwest  Level FlightAware Approximate
11:42AM 26.1500 -81.7667 246° West  Level FlightAware Approximate
11:43AM 26.1524 -81.7756 246° West  Level Estimated
11:44AM 26.1524 -81.7756 246° West  Level Estimated
11:45AM 26.1524 -81.7756 246° West  Level Estimated
11:46AM 26.1524 -81.7756 246° West  Level Estimated
11:47AM 26.1524 -81.7756 246° West  Level Estimated
11:48AM 26.1524 -81.7756 246° West  Level Estimated
11:49AM 26.1524 -81.7756 246° West  Level Estimated
11:50AM 26.1524 -81.7756 246° West  Level Estimated
11:51AM 26.1524 -81.7756 246° West  Level Estimated
11:52AM 26.1524 -81.7756 246° West  Level Estimated
11:53AM 26.1524 -81.7756 246° West  Level Estimated
11:54AM 26.1524 -81.7756 246° West  Level Estimated
11:55AM 26.1524 -81.7756 246° West  Level Estimated